createdAt,value
2022-10-05T00:00:35.293Z,16.91
2022-10-05T00:01:36.197Z,16.93
2022-10-05T00:02:33.923Z,16.83
2022-10-05T00:03:34.211Z,16.81
2022-10-05T00:04:34.519Z,16.79
2022-10-05T00:05:36.709Z,16.94
2022-10-05T00:06:35.939Z,16.83
2022-10-05T00:07:35.436Z,16.75
2022-10-05T00:08:35.749Z,16.90
2022-10-05T00:09:36.055Z,16.76
2022-10-05T00:10:39.195Z,16.71
2022-10-05T00:11:39.439Z,16.81
2022-10-05T00:12:39.575Z,16.86
2022-10-05T00:13:38.084Z,16.99
2022-10-05T00:14:38.246Z,16.99
2022-10-05T00:15:41.087Z,16.72
2022-10-05T00:16:38.107Z,16.76
2022-10-05T00:17:40.206Z,16.68
2022-10-05T00:18:39.399Z,16.83
2022-10-05T00:19:39.811Z,16.83
2022-10-05T00:20:40.137Z,16.81
2022-10-05T00:21:41.506Z,16.78
2022-10-05T00:22:41.570Z,16.81
2022-10-05T00:23:40.967Z,16.74
2022-10-05T00:24:41.127Z,16.57
2022-10-05T00:25:41.562Z,16.66
2022-10-05T00:26:41.014Z,16.74
2022-10-05T00:27:43.175Z,16.66
2022-10-05T00:28:43.370Z,16.71
2022-10-05T00:29:41.749Z,16.75
2022-10-05T00:30:42.555Z,16.60
2022-10-05T00:31:45.804Z,16.65
2022-10-05T00:32:42.544Z,16.72
2022-10-05T00:33:43.739Z,16.60
2022-10-05T00:34:43.106Z,16.64
2022-10-05T00:35:43.421Z,16.71
2022-10-05T00:36:47.375Z,16.65
2022-10-05T00:37:45.851Z,16.64
2022-10-05T00:38:46.025Z,16.61
2022-10-05T00:39:46.216Z,16.51
2022-10-05T00:40:46.897Z,16.56
2022-10-05T00:41:47.958Z,16.57
2022-10-05T00:42:47.308Z,16.68
2022-10-05T00:43:47.511Z,16.60
2022-10-05T00:44:48.040Z,16.53
2022-10-05T00:45:47.784Z,16.50
2022-10-05T00:46:49.402Z,16.54
2022-10-05T00:47:48.643Z,16.61
2022-10-05T00:48:47.429Z,16.60
2022-10-05T00:49:49.581Z,16.53
2022-10-05T00:50:49.773Z,16.50
2022-10-05T00:51:50.906Z,16.53
2022-10-05T00:52:50.140Z,16.51
2022-10-05T00:53:50.832Z,16.33
2022-10-05T00:54:51.018Z,16.46
2022-10-05T00:55:51.204Z,16.39
2022-10-05T00:56:52.353Z,16.39
2022-10-05T00:57:52.088Z,16.47
2022-10-05T00:58:50.353Z,16.42
2022-10-05T00:59:52.543Z,16.42
2022-10-05T01:00:50.975Z,16.56
2022-10-05T01:01:52.360Z,16.72
2022-10-05T01:02:53.585Z,16.71
2022-10-05T01:03:51.865Z,16.72
2022-10-05T01:04:54.050Z,16.54
2022-10-05T01:05:52.433Z,16.39
2022-10-05T01:06:54.622Z,16.49
2022-10-05T01:07:53.027Z,16.53
2022-10-05T01:08:55.212Z,16.46
2022-10-05T01:09:53.608Z,16.49
2022-10-05T01:10:53.912Z,16.50
2022-10-05T01:11:56.089Z,16.61
2022-10-05T01:12:56.267Z,16.49
2022-10-05T01:13:56.455Z,16.60
2022-10-05T01:14:55.086Z,16.54
2022-10-05T01:15:55.399Z,16.31
2022-10-05T01:16:57.674Z,16.29
2022-10-05T01:17:56.027Z,16.33
2022-10-05T01:18:58.206Z,16.38
2022-10-05T01:19:56.595Z,16.39
2022-10-05T01:20:56.911Z,16.42
2022-10-05T01:21:59.081Z,16.39
2022-10-05T01:22:59.265Z,16.47
2022-10-05T01:23:59.459Z,16.49
2022-10-05T01:24:58.100Z,16.54
2022-10-05T01:26:00.301Z,16.56
2022-10-05T01:27:00.484Z,16.49
2022-10-05T01:27:59.042Z,16.58
2022-10-05T01:29:01.182Z,16.47
2022-10-05T01:29:59.572Z,16.49
2022-10-05T01:30:59.885Z,16.42
2022-10-05T01:32:02.047Z,16.50
2022-10-05T01:33:00.426Z,16.53
2022-10-05T01:34:02.609Z,16.61
2022-10-05T01:35:02.801Z,16.58
2022-10-05T01:36:01.308Z,16.64
2022-10-05T01:37:03.491Z,16.60
2022-10-05T01:38:05.125Z,16.61
2022-10-05T01:39:03.863Z,16.54
2022-10-05T01:40:02.496Z,16.57
2022-10-05T01:41:02.797Z,16.66
2022-10-05T01:42:03.104Z,16.68
2022-10-05T01:43:05.280Z,16.61
2022-10-05T01:44:05.466Z,16.56
2022-10-05T01:45:03.994Z,16.58
2022-10-05T01:46:04.314Z,16.54
2022-10-05T01:47:04.604Z,16.60
2022-10-05T01:48:04.944Z,16.56
2022-10-05T01:49:05.251Z,16.66
2022-10-05T01:50:07.441Z,16.60
2022-10-05T01:51:07.796Z,16.74
2022-10-05T01:52:06.064Z,16.69
2022-10-05T01:53:06.361Z,16.75
2022-10-05T01:54:08.572Z,16.68
2022-10-05T01:55:08.755Z,16.58
2022-10-05T01:56:08.968Z,16.54
2022-10-05T01:57:07.602Z,16.54
2022-10-05T01:58:09.794Z,16.68
2022-10-05T01:59:09.976Z,16.71
2022-10-05T02:00:11.122Z,16.71
2022-10-05T02:01:09.585Z,16.76
2022-10-05T02:02:09.114Z,16.71
2022-10-05T02:03:09.292Z,16.60
2022-10-05T02:04:09.534Z,16.71
2022-10-05T02:05:12.675Z,16.64
2022-10-05T02:06:12.884Z,16.61
2022-10-05T02:07:10.402Z,16.60
2022-10-05T02:08:11.684Z,16.69
2022-10-05T02:09:12.927Z,16.72
2022-10-05T02:10:13.100Z,16.72
2022-10-05T02:11:13.345Z,16.69
2022-10-05T02:12:12.837Z,16.64
2022-10-05T02:13:12.209Z,16.72
2022-10-05T02:14:12.516Z,16.79
2022-10-05T02:15:14.697Z,16.74
2022-10-05T02:16:14.135Z,16.66
2022-10-05T02:17:13.357Z,16.71
2022-10-05T02:18:13.672Z,16.75
2022-10-05T02:19:13.988Z,16.76
2022-10-05T02:20:16.165Z,16.78
2022-10-05T02:21:15.557Z,16.87
2022-10-05T02:22:14.786Z,16.75
2022-10-05T02:23:16.945Z,16.75
2022-10-05T02:24:17.113Z,16.78
2022-10-05T02:25:17.290Z,16.69
2022-10-05T02:26:16.913Z,16.74
2022-10-05T02:27:18.149Z,16.86
2022-10-05T02:28:16.466Z,16.75
2022-10-05T02:29:18.598Z,16.86
2022-10-05T02:30:18.803Z,16.87
2022-10-05T02:31:20.743Z,16.84
2022-10-05T02:32:19.178Z,16.87
2022-10-05T02:33:19.854Z,16.79
2022-10-05T02:34:20.040Z,16.71
2022-10-05T02:35:20.217Z,16.65
2022-10-05T02:36:20.613Z,16.64
2022-10-05T02:37:19.130Z,16.71
2022-10-05T02:38:20.324Z,16.72
2022-10-05T02:39:19.705Z,16.76
2022-10-05T02:40:20.874Z,16.78
2022-10-05T02:41:20.366Z,16.76
2022-10-05T02:42:21.460Z,16.66
2022-10-05T02:43:20.843Z,16.61
2022-10-05T02:44:21.153Z,16.74
2022-10-05T02:45:21.466Z,16.69
2022-10-05T02:46:24.829Z,16.61
2022-10-05T02:47:23.925Z,16.64
2022-10-05T02:48:22.446Z,16.69
2022-10-05T02:49:22.781Z,16.61
2022-10-05T02:50:23.076Z,16.64
2022-10-05T02:51:25.389Z,16.71
2022-10-05T02:52:25.611Z,16.75
2022-10-05T02:53:23.982Z,16.72
2022-10-05T02:54:24.285Z,16.65
2022-10-05T02:55:26.472Z,16.66
2022-10-05T02:56:25.830Z,16.64
2022-10-05T02:57:27.062Z,16.71
2022-10-05T02:58:27.235Z,16.66
2022-10-05T02:59:25.744Z,16.72
2022-10-05T03:00:27.928Z,16.74
2022-10-05T03:01:27.397Z,16.71
2022-10-05T03:02:26.695Z,16.61
2022-10-05T03:03:28.550Z,16.69
2022-10-05T03:04:27.295Z,16.68
2022-10-05T03:05:29.491Z,16.69
2022-10-05T03:06:30.659Z,16.69
2022-10-05T03:07:29.887Z,16.79
2022-10-05T03:08:31.029Z,16.76
2022-10-05T03:09:30.769Z,16.74
2022-10-05T03:10:29.027Z,16.78
2022-10-05T03:11:32.008Z,16.78
2022-10-05T03:12:29.671Z,16.71
2022-10-05T03:13:30.794Z,16.72
2022-10-05T03:14:32.178Z,16.66
2022-10-05T03:15:32.358Z,16.72
2022-10-05T03:16:31.847Z,16.64
2022-10-05T03:17:31.219Z,16.76
2022-10-05T03:18:31.519Z,16.74
2022-10-05T03:19:33.707Z,16.71
2022-10-05T03:20:32.087Z,16.78
2022-10-05T03:21:35.244Z,16.69
2022-10-05T03:22:32.642Z,16.71
2022-10-05T03:23:32.974Z,16.71
2022-10-05T03:24:35.138Z,16.84
2022-10-05T03:25:33.525Z,16.86
2022-10-05T03:26:37.203Z,16.87
2022-10-05T03:27:34.121Z,16.76
2022-10-05T03:28:34.482Z,16.71
2022-10-05T03:29:36.623Z,16.78
2022-10-05T03:30:35.015Z,16.78
2022-10-05T03:31:39.746Z,16.84
2022-10-05T03:32:35.595Z,16.75
2022-10-05T03:33:35.903Z,16.76
2022-10-05T03:34:36.213Z,16.65
2022-10-05T03:35:36.523Z,16.65
2022-10-05T03:36:38.824Z,16.69
2022-10-05T03:37:39.015Z,16.72
2022-10-05T03:38:39.154Z,16.71
2022-10-05T03:39:39.340Z,16.69
2022-10-05T03:40:37.967Z,16.69
2022-10-05T03:41:39.107Z,16.83
2022-10-05T03:42:41.447Z,16.76
2022-10-05T03:43:38.854Z,16.75
2022-10-05T03:44:40.606Z,16.76
2022-10-05T03:45:40.517Z,16.71
2022-10-05T03:46:41.730Z,16.78
2022-10-05T03:47:42.847Z,16.58
2022-10-05T03:48:41.261Z,16.69
2022-10-05T03:49:41.411Z,16.66
2022-10-05T03:50:42.735Z,16.75
2022-10-05T03:51:42.943Z,16.68
2022-10-05T03:52:43.168Z,16.71
2022-10-05T03:53:42.565Z,16.78
2022-10-05T03:54:42.740Z,16.66
2022-10-05T03:55:44.116Z,16.81
2022-10-05T03:56:43.584Z,16.66
2022-10-05T03:57:44.696Z,16.61
2022-10-05T03:58:43.084Z,16.65
2022-10-05T03:59:46.240Z,16.56
2022-10-05T04:00:43.645Z,16.64
2022-10-05T04:01:46.259Z,16.76
2022-10-05T04:02:45.120Z,16.71
2022-10-05T04:03:45.430Z,16.72
2022-10-05T04:04:46.657Z,16.65
2022-10-05T04:05:46.841Z,16.71
2022-10-05T04:06:47.312Z,16.68
2022-10-05T04:07:46.641Z,16.54
2022-10-05T04:08:48.383Z,16.69
2022-10-05T04:09:48.076Z,16.71
2022-10-05T04:10:47.531Z,16.76
2022-10-05T04:11:48.765Z,16.71
2022-10-05T04:12:47.134Z,16.74
2022-10-05T04:13:47.613Z,16.64
2022-10-05T04:14:49.622Z,16.72
2022-10-05T04:15:48.080Z,16.66
2022-10-05T04:16:49.444Z,16.76
2022-10-05T04:17:48.573Z,16.68
2022-10-05T04:18:49.892Z,16.79
2022-10-05T04:19:49.137Z,16.79
2022-10-05T04:20:51.326Z,16.68
2022-10-05T04:21:50.508Z,16.69
2022-10-05T04:22:49.987Z,16.74
2022-10-05T04:23:51.203Z,16.69
2022-10-05T04:24:50.552Z,16.69
2022-10-05T04:25:52.757Z,16.72
2022-10-05T04:26:52.924Z,16.72
2022-10-05T04:27:51.616Z,16.79
2022-10-05T04:28:53.804Z,16.86
2022-10-05T04:29:52.074Z,16.76
2022-10-05T04:30:52.372Z,16.66
2022-10-05T04:31:54.555Z,16.75
2022-10-05T04:32:54.741Z,16.81
2022-10-05T04:33:55.895Z,16.89
2022-10-05T04:34:55.124Z,16.78
2022-10-05T04:35:55.806Z,16.86
2022-10-05T04:36:55.981Z,16.94
2022-10-05T04:37:56.173Z,16.87
2022-10-05T04:38:57.325Z,16.75
2022-10-05T04:39:55.094Z,16.75
2022-10-05T04:40:57.283Z,16.76
2022-10-05T04:41:57.465Z,16.81
2022-10-05T04:42:57.649Z,16.89
2022-10-05T04:43:58.819Z,16.86
2022-10-05T04:44:59.337Z,16.89
2022-10-05T04:45:56.852Z,16.91
2022-10-05T04:46:59.057Z,16.89
2022-10-05T04:47:57.396Z,17.04
2022-10-05T04:49:01.049Z,16.99
2022-10-05T04:49:57.962Z,16.94
2022-10-05T04:51:00.115Z,17.01
2022-10-05T04:51:58.511Z,16.83
2022-10-05T04:52:58.804Z,16.90
2022-10-05T04:54:00.108Z,16.68
2022-10-05T04:55:01.358Z,16.78
2022-10-05T04:55:59.600Z,16.76
2022-10-05T04:56:59.919Z,16.79
2022-10-05T04:58:00.220Z,16.86
2022-10-05T04:59:03.226Z,16.76
2022-10-05T05:00:01.830Z,16.76
2022-10-05T05:01:01.295Z,16.74
2022-10-05T05:02:01.517Z,16.72
2022-10-05T05:03:01.826Z,16.79
2022-10-05T05:04:05.534Z,16.65
2022-10-05T05:05:02.442Z,16.79
2022-10-05T05:06:16.769Z,16.69
2022-10-05T05:07:04.071Z,16.72
2022-10-05T05:08:05.258Z,16.71
2022-10-05T05:09:06.403Z,16.87
2022-10-05T05:10:03.935Z,16.90
2022-10-05T05:11:04.236Z,16.79
2022-10-05T05:12:04.545Z,16.75
2022-10-05T05:13:06.721Z,16.86
2022-10-05T05:14:06.117Z,16.81
2022-10-05T05:15:05.363Z,16.78
2022-10-05T05:16:05.725Z,16.76
2022-10-05T05:17:12.907Z,16.75
2022-10-05T05:18:10.022Z,16.74
2022-10-05T05:19:06.558Z,16.75
2022-10-05T05:20:06.881Z,16.90
2022-10-05T05:21:07.204Z,16.72
2022-10-05T05:22:07.525Z,16.86
2022-10-05T05:23:10.667Z,16.89
2022-10-05T05:24:09.902Z,16.74
2022-10-05T05:25:08.416Z,16.74
2022-10-05T05:26:08.738Z,16.69
2022-10-05T05:27:10.912Z,16.78
2022-10-05T05:28:13.200Z,16.76
2022-10-05T05:29:09.580Z,16.71
2022-10-05T05:30:09.927Z,16.86
2022-10-05T05:31:10.273Z,16.83
2022-10-05T05:32:10.595Z,16.83
2022-10-05T05:33:13.777Z,16.78
2022-10-05T05:34:11.195Z,16.93
2022-10-05T05:35:11.535Z,16.76
2022-10-05T05:36:11.882Z,16.83
2022-10-05T05:37:12.234Z,16.61
2022-10-05T05:38:15.409Z,16.68
2022-10-05T05:39:13.699Z,16.75
2022-10-05T05:40:14.119Z,16.84
2022-10-05T05:41:15.264Z,16.75
2022-10-05T05:42:15.424Z,16.79
2022-10-05T05:43:16.572Z,16.86
2022-10-05T05:44:14.243Z,16.79
2022-10-05T05:45:14.579Z,16.74
2022-10-05T05:46:16.819Z,16.65
2022-10-05T05:47:15.186Z,16.71
2022-10-05T05:48:17.385Z,16.71
2022-10-05T05:49:15.789Z,16.65
2022-10-05T05:50:18.950Z,16.74
2022-10-05T05:51:17.156Z,16.64
2022-10-05T05:52:17.573Z,16.72
2022-10-05T05:53:19.036Z,16.68
2022-10-05T05:54:18.147Z,16.64
2022-10-05T05:55:18.565Z,16.51
2022-10-05T05:56:18.725Z,16.56
2022-10-05T05:57:19.073Z,16.66
2022-10-05T05:58:21.782Z,16.64
2022-10-05T05:59:19.663Z,16.74
2022-10-05T06:00:19.879Z,16.83
2022-10-05T06:01:32.069Z,16.78
2022-10-05T06:02:22.540Z,16.76
2022-10-05T06:03:21.018Z,16.83
2022-10-05T06:04:20.223Z,16.71
2022-10-05T06:05:22.405Z,16.72
2022-10-05T06:06:20.701Z,16.72
2022-10-05T06:07:20.927Z,16.68
2022-10-05T06:08:24.094Z,16.64
2022-10-05T06:09:21.403Z,16.72
2022-10-05T06:10:22.598Z,16.61
2022-10-05T06:11:22.882Z,16.75
2022-10-05T06:12:22.162Z,16.91
2022-10-05T06:13:25.785Z,16.61
2022-10-05T06:14:24.521Z,16.78
2022-10-05T06:15:24.701Z,16.87
2022-10-05T06:16:24.958Z,16.81
2022-10-05T06:17:24.389Z,16.69
2022-10-05T06:18:24.806Z,16.81
2022-10-05T06:19:25.973Z,16.76
2022-10-05T06:20:24.393Z,16.74
2022-10-05T06:21:26.574Z,16.68
2022-10-05T06:22:26.770Z,16.68
2022-10-05T06:23:26.157Z,16.68
2022-10-05T06:24:25.446Z,16.61
2022-10-05T06:25:25.669Z,16.66
2022-10-05T06:26:27.854Z,16.78
2022-10-05T06:27:28.034Z,16.76
2022-10-05T06:28:29.192Z,16.75
2022-10-05T06:29:28.442Z,16.78
2022-10-05T06:30:28.591Z,16.87
2022-10-05T06:31:27.307Z,16.93
2022-10-05T06:32:29.459Z,16.94
2022-10-05T06:33:28.739Z,16.61
2022-10-05T06:34:29.919Z,16.68
2022-10-05T06:35:28.383Z,16.74
2022-10-05T06:36:30.531Z,16.84
2022-10-05T06:37:28.830Z,16.76
2022-10-05T06:38:32.539Z,16.66
2022-10-05T06:39:29.471Z,16.61
2022-10-05T06:40:33.130Z,16.71
2022-10-05T06:41:30.065Z,16.86
2022-10-05T06:42:32.266Z,16.81
2022-10-05T06:43:33.922Z,16.99
2022-10-05T06:44:30.861Z,16.94
2022-10-05T06:45:33.081Z,16.87
2022-10-05T06:46:31.503Z,16.91
2022-10-05T06:47:33.648Z,16.74
2022-10-05T06:48:34.816Z,16.68
2022-10-05T06:49:32.226Z,16.89
2022-10-05T06:50:32.584Z,16.99
2022-10-05T06:51:36.212Z,16.87
2022-10-05T06:52:33.032Z,16.79
2022-10-05T06:53:35.270Z,16.83
2022-10-05T06:54:33.549Z,16.69
2022-10-05T06:55:33.884Z,16.84
2022-10-05T06:56:36.071Z,16.93
2022-10-05T06:57:34.370Z,16.99
2022-10-05T06:58:37.522Z,16.99
2022-10-05T06:59:34.942Z,17.02
2022-10-05T07:00:35.165Z,16.99
2022-10-05T07:01:37.451Z,16.93
2022-10-05T07:02:37.620Z,16.89
2022-10-05T07:03:38.708Z,16.81
2022-10-05T07:04:37.203Z,16.99
2022-10-05T07:05:36.436Z,16.89
2022-10-05T07:06:38.637Z,17.08
2022-10-05T07:07:36.939Z,17.02
2022-10-05T07:08:38.213Z,17.06
2022-10-05T07:09:39.388Z,16.89
2022-10-05T07:10:39.564Z,16.93
2022-10-05T07:11:39.708Z,17.04
2022-10-05T07:12:40.287Z,17.06
2022-10-05T07:13:40.774Z,17.15
2022-10-05T07:14:38.977Z,16.91
2022-10-05T07:15:39.317Z,16.87
2022-10-05T07:16:41.610Z,16.97
2022-10-05T07:17:41.725Z,17.06
2022-10-05T07:18:42.110Z,16.97
2022-10-05T07:19:40.392Z,16.90
2022-10-05T07:20:41.963Z,17.04
2022-10-05T07:21:42.803Z,17.04
2022-10-05T07:22:41.311Z,17.01
2022-10-05T07:23:43.427Z,16.99
2022-10-05T07:24:41.843Z,16.97
2022-10-05T07:25:42.085Z,16.94
2022-10-05T07:26:42.320Z,17.02
2022-10-05T07:27:47.131Z,17.05
2022-10-05T07:28:45.662Z,16.91
2022-10-05T07:29:44.104Z,17.04
2022-10-05T07:30:43.426Z,17.19
2022-10-05T07:31:43.734Z,17.06
2022-10-05T07:32:43.956Z,17.09
2022-10-05T07:33:44.329Z,16.96
2022-10-05T07:34:44.547Z,17.04
2022-10-05T07:35:44.782Z,17.09
2022-10-05T07:36:45.574Z,17.11
2022-10-05T07:37:45.258Z,16.97
2022-10-05T07:38:47.444Z,16.91
2022-10-05T07:40:00.102Z,17.08
2022-10-05T07:40:48.904Z,17.16
2022-10-05T07:41:46.216Z,17.24
2022-10-05T07:42:51.759Z,17.19
2022-10-05T07:44:03.858Z,17.14
2022-10-05T07:44:49.074Z,17.05
2022-10-05T07:45:50.249Z,17.11
2022-10-05T07:46:47.854Z,17.14
2022-10-05T07:47:51.313Z,16.97
2022-10-05T07:48:48.258Z,16.89
2022-10-05T07:49:51.398Z,17.01
2022-10-05T07:50:51.574Z,16.96
2022-10-05T07:51:49.444Z,16.93
2022-10-05T07:52:50.342Z,16.79
2022-10-05T07:53:51.688Z,16.78
2022-10-05T07:54:50.976Z,16.89
2022-10-05T07:55:52.199Z,16.86
2022-10-05T07:56:51.449Z,16.72
2022-10-05T07:57:51.652Z,16.72
2022-10-05T07:58:52.634Z,16.76
2022-10-05T07:59:52.821Z,16.83
2022-10-05T08:00:52.645Z,16.91
2022-10-05T08:01:52.861Z,16.90
2022-10-05T08:02:53.282Z,16.87
2022-10-05T08:03:54.435Z,16.97
2022-10-05T08:04:54.612Z,16.93
2022-10-05T08:05:54.775Z,16.75
2022-10-05T08:06:53.311Z,16.83
2022-10-05T08:07:53.668Z,16.72
2022-10-05T08:08:57.301Z,16.87
2022-10-05T08:09:56.087Z,16.79
2022-10-05T08:10:55.525Z,16.91
2022-10-05T08:11:54.815Z,17.01
2022-10-05T08:12:55.844Z,16.87
2022-10-05T08:13:57.253Z,16.81
2022-10-05T08:14:56.422Z,16.83
2022-10-05T08:15:56.816Z,16.89
2022-10-05T08:16:58.024Z,16.87
2022-10-05T08:17:57.159Z,17.02
2022-10-05T08:18:58.515Z,16.86
2022-10-05T08:19:57.738Z,16.81
2022-10-05T08:20:59.023Z,16.90
2022-10-05T08:21:59.224Z,16.99
2022-10-05T08:22:59.456Z,16.83
2022-10-05T08:23:59.590Z,17.09
2022-10-05T08:24:58.266Z,17.08
2022-10-05T08:25:58.530Z,17.05
2022-10-05T08:26:58.757Z,17.14
2022-10-05T08:27:59.088Z,17.31
2022-10-05T08:29:02.037Z,17.12
2022-10-05T08:30:01.229Z,17.16
2022-10-05T08:30:59.999Z,16.99
2022-10-05T08:32:00.235Z,17.04
2022-10-05T08:33:02.873Z,17.15
2022-10-05T08:34:02.581Z,17.04
2022-10-05T08:35:02.759Z,17.01
2022-10-05T08:36:03.453Z,16.91
2022-10-05T08:37:01.754Z,16.99
2022-10-05T08:38:05.403Z,17.09
2022-10-05T08:39:04.131Z,17.12
2022-10-05T08:40:04.310Z,17.02
2022-10-05T08:41:02.864Z,17.08
2022-10-05T08:42:03.104Z,17.04
2022-10-05T08:43:06.797Z,17.06
2022-10-05T08:44:03.604Z,17.22
2022-10-05T08:45:03.842Z,17.41
2022-10-05T08:46:04.235Z,17.54
2022-10-05T08:47:06.379Z,17.48
2022-10-05T08:48:07.538Z,17.44
2022-10-05T08:49:06.788Z,17.41
2022-10-05T08:50:06.963Z,17.38
2022-10-05T08:51:07.652Z,17.26
2022-10-05T08:52:07.834Z,17.54
2022-10-05T08:53:07.108Z,17.63
2022-10-05T08:54:08.455Z,17.70
2022-10-05T08:55:06.761Z,17.90
2022-10-05T08:56:08.963Z,17.80
2022-10-05T08:57:07.265Z,17.70
2022-10-05T08:58:10.939Z,17.74
2022-10-05T08:59:09.654Z,17.70
2022-10-05T09:00:09.891Z,17.56
2022-10-05T09:01:08.425Z,17.64
2022-10-05T09:02:08.704Z,17.45
2022-10-05T09:03:12.120Z,17.38
2022-10-05T09:04:10.148Z,17.57
2022-10-05T09:05:11.390Z,17.63
2022-10-05T09:06:09.681Z,17.48
2022-10-05T09:07:09.932Z,17.51
2022-10-05T09:08:11.141Z,17.56
2022-10-05T09:09:10.440Z,17.72
2022-10-05T09:10:12.656Z,17.54
2022-10-05T09:11:11.005Z,17.46
2022-10-05T09:12:13.127Z,17.39
2022-10-05T09:13:13.366Z,17.29
2022-10-05T09:14:11.808Z,17.36
2022-10-05T09:15:25.498Z,17.30
2022-10-05T09:16:13.354Z,17.27
2022-10-05T09:17:14.471Z,17.27
2022-10-05T09:18:13.927Z,17.31
2022-10-05T09:19:13.219Z,17.30
2022-10-05T09:20:13.468Z,17.29
2022-10-05T09:21:13.706Z,17.09
2022-10-05T09:22:15.901Z,17.31
2022-10-05T09:23:16.192Z,17.44
2022-10-05T09:24:16.302Z,17.63
2022-10-05T09:25:14.736Z,17.48
2022-10-05T09:26:16.922Z,17.49
2022-10-05T09:27:15.237Z,17.39
2022-10-05T09:28:16.331Z,17.44
2022-10-05T09:29:17.671Z,17.48
2022-10-05T09:30:15.984Z,17.39
2022-10-05T09:31:17.713Z,17.30
2022-10-05T09:32:16.794Z,17.42
2022-10-05T09:33:18.720Z,17.23
2022-10-05T09:34:18.910Z,17.19
2022-10-05T09:35:17.460Z,17.27
2022-10-05T09:36:17.706Z,17.34
2022-10-05T09:37:17.923Z,17.42
2022-10-05T09:38:20.127Z,17.44
2022-10-05T09:39:18.431Z,17.31
2022-10-05T09:40:20.615Z,17.48
2022-10-05T09:41:18.954Z,17.34
2022-10-05T09:42:21.117Z,17.48
2022-10-05T09:43:22.791Z,17.60
2022-10-05T09:44:19.691Z,17.52
2022-10-05T09:45:21.865Z,17.54
2022-10-05T09:46:20.291Z,17.52
2022-10-05T09:47:22.366Z,17.45
2022-10-05T09:48:21.862Z,17.44
2022-10-05T09:49:21.033Z,17.67
2022-10-05T09:50:23.225Z,17.67
2022-10-05T09:51:21.539Z,17.68
2022-10-05T09:52:21.772Z,17.49
2022-10-05T09:53:22.851Z,17.63
2022-10-05T09:54:22.307Z,17.70
2022-10-05T09:55:24.476Z,17.70
2022-10-05T09:56:22.822Z,17.71
2022-10-05T09:57:23.025Z,17.46
2022-10-05T09:58:24.190Z,17.63
2022-10-05T09:59:23.885Z,17.71
2022-10-05T10:00:25.800Z,17.68
2022-10-05T10:01:34.113Z,17.78
2022-10-05T10:02:25.548Z,17.72
2022-10-05T10:03:24.852Z,17.57
2022-10-05T10:04:25.097Z,17.45
2022-10-05T10:05:27.280Z,17.31
2022-10-05T10:06:27.498Z,17.52
2022-10-05T10:07:25.931Z,17.56
2022-10-05T10:08:29.563Z,17.41
2022-10-05T10:09:29.243Z,17.63
2022-10-05T10:10:26.809Z,17.64
2022-10-05T10:11:29.942Z,17.76
2022-10-05T10:12:27.417Z,17.94
2022-10-05T10:13:28.614Z,17.92
2022-10-05T10:14:31.315Z,18.00
2022-10-05T10:15:28.932Z,17.85
2022-10-05T10:16:31.286Z,17.59
2022-10-05T10:17:29.513Z,17.72
2022-10-05T10:18:29.932Z,17.63
2022-10-05T10:19:30.174Z,17.64
2022-10-05T10:20:30.434Z,17.59
2022-10-05T10:21:31.657Z,17.56
2022-10-05T10:22:30.822Z,17.60
2022-10-05T10:23:33.149Z,17.39
2022-10-05T10:24:31.398Z,17.59
2022-10-05T10:25:32.635Z,17.72
2022-10-05T10:26:32.818Z,17.79
2022-10-05T10:27:31.376Z,17.79
2022-10-05T10:28:32.641Z,17.82
2022-10-05T10:29:33.909Z,17.80
2022-10-05T10:30:35.734Z,17.72
2022-10-05T10:31:34.422Z,17.72
2022-10-05T10:32:33.686Z,17.76
2022-10-05T10:33:35.839Z,17.94
2022-10-05T10:34:33.287Z,17.72
2022-10-05T10:35:33.527Z,17.72
2022-10-05T10:36:35.707Z,17.90
2022-10-05T10:37:34.396Z,17.87
2022-10-05T10:38:35.172Z,17.92
2022-10-05T10:39:34.606Z,17.94
2022-10-05T10:40:34.858Z,17.86
2022-10-05T10:41:37.028Z,17.95
2022-10-05T10:42:35.337Z,17.87
2022-10-05T10:43:36.560Z,17.70
2022-10-05T10:44:35.856Z,17.76
2022-10-05T10:45:36.106Z,17.80
2022-10-05T10:46:38.382Z,18.00
2022-10-05T10:47:36.691Z,18.01
2022-10-05T10:48:40.332Z,18.01
2022-10-05T10:49:37.157Z,18.10
2022-10-05T10:50:37.398Z,17.92
2022-10-05T10:51:39.581Z,17.87
2022-10-05T10:52:37.890Z,18.05
2022-10-05T10:53:39.081Z,18.08
2022-10-05T10:54:38.379Z,18.07
2022-10-05T10:55:38.619Z,18.00
2022-10-05T10:56:38.860Z,17.92
2022-10-05T10:57:41.041Z,17.89
2022-10-05T10:58:42.696Z,18.10
2022-10-05T10:59:39.641Z,18.01
2022-10-05T11:00:39.883Z,18.11
2022-10-05T11:01:40.176Z,18.05
2022-10-05T11:02:42.518Z,18.03
2022-10-05T11:03:42.519Z,18.04
2022-10-05T11:04:42.725Z,18.03
2022-10-05T11:05:46.418Z,17.86
2022-10-05T11:06:43.582Z,18.01
2022-10-05T11:07:43.780Z,18.04
2022-10-05T11:08:43.926Z,18.10
2022-10-05T11:09:44.083Z,18.13
2022-10-05T11:10:44.784Z,17.87
2022-10-05T11:11:44.962Z,17.98
2022-10-05T11:12:45.142Z,18.00
2022-10-05T11:13:45.343Z,18.18
2022-10-05T11:14:46.028Z,18.15
2022-10-05T11:15:44.414Z,18.20
2022-10-05T11:16:46.771Z,18.33
2022-10-05T11:17:46.699Z,18.34
2022-10-05T11:18:45.258Z,18.25
2022-10-05T11:20:02.933Z,18.13
2022-10-05T11:20:48.636Z,18.40
2022-10-05T11:21:47.815Z,18.44
2022-10-05T11:22:46.354Z,18.58
2022-10-05T11:23:48.544Z,18.38
2022-10-05T11:24:48.753Z,18.47
2022-10-05T11:25:47.181Z,18.78
2022-10-05T11:26:49.567Z,18.90
2022-10-05T11:27:47.719Z,18.58
2022-10-05T11:28:47.967Z,18.41
2022-10-05T11:29:50.209Z,18.52
2022-10-05T11:30:51.262Z,18.59
2022-10-05T11:31:50.761Z,18.55
2022-10-05T11:32:50.723Z,18.68
2022-10-05T11:33:51.400Z,18.53
2022-10-05T11:34:49.727Z,18.62
2022-10-05T11:35:51.893Z,18.44
2022-10-05T11:36:50.200Z,18.41
2022-10-05T11:37:50.448Z,18.53
2022-10-05T11:38:50.684Z,18.49
2022-10-05T11:39:51.031Z,18.66
2022-10-05T11:40:51.271Z,18.81
2022-10-05T11:41:53.441Z,18.73
2022-10-05T11:42:51.744Z,18.31
2022-10-05T11:43:51.984Z,18.33
2022-10-05T11:44:52.224Z,18.44
2022-10-05T11:45:54.400Z,18.35
2022-10-05T11:46:52.752Z,18.35
2022-10-05T11:47:52.951Z,18.50
2022-10-05T11:48:53.284Z,18.41
2022-10-05T11:49:56.855Z,18.63
2022-10-05T11:50:55.583Z,18.81
2022-10-05T11:51:54.149Z,18.60
2022-10-05T11:52:54.381Z,18.56
2022-10-05T11:53:54.622Z,18.49
2022-10-05T11:55:10.550Z,18.55
2022-10-05T11:55:56.207Z,18.83
2022-10-05T11:56:55.964Z,18.73
2022-10-05T11:57:55.736Z,18.55
2022-10-05T11:58:55.970Z,18.70
2022-10-05T11:59:57.178Z,18.65
2022-10-05T12:00:58.404Z,18.45
2022-10-05T12:01:58.901Z,18.44
2022-10-05T12:02:57.033Z,18.68
2022-10-05T12:03:57.362Z,18.68
2022-10-05T12:04:58.578Z,18.86
2022-10-05T12:05:59.818Z,18.70
2022-10-05T12:07:00.021Z,18.77
2022-10-05T12:07:58.454Z,18.75
2022-10-05T12:08:58.686Z,18.65
2022-10-05T12:09:59.979Z,18.68
2022-10-05T12:11:00.679Z,18.68
2022-10-05T12:11:59.499Z,18.74
2022-10-05T12:13:00.068Z,18.53
2022-10-05T12:14:00.085Z,18.59
2022-10-05T12:15:00.451Z,18.63
2022-10-05T12:16:02.535Z,18.68
2022-10-05T12:17:00.943Z,18.71
2022-10-05T12:18:03.140Z,18.65
2022-10-05T12:19:03.314Z,18.65
2022-10-05T12:20:02.601Z,18.44
2022-10-05T12:21:02.026Z,18.49
2022-10-05T12:22:02.273Z,18.53
2022-10-05T12:23:02.508Z,18.62
2022-10-05T12:24:04.702Z,18.56
2022-10-05T12:25:03.907Z,18.58
2022-10-05T12:26:03.384Z,18.47
2022-10-05T12:27:03.613Z,18.50
2022-10-05T12:28:03.923Z,18.47
2022-10-05T12:29:06.031Z,18.34
2022-10-05T12:30:05.465Z,18.31
2022-10-05T12:31:05.663Z,18.22
2022-10-05T12:32:07.945Z,18.26
2022-10-05T12:33:06.223Z,18.29
2022-10-05T12:34:07.543Z,18.37
2022-10-05T12:35:06.027Z,18.29
2022-10-05T12:36:06.262Z,18.05
2022-10-05T12:37:08.445Z,18.18
2022-10-05T12:38:08.771Z,18.26
2022-10-05T12:39:08.045Z,18.26
2022-10-05T12:40:08.150Z,18.25
2022-10-05T12:41:09.517Z,18.23
2022-10-05T12:42:07.812Z,18.19
2022-10-05T12:43:08.035Z,18.08
2022-10-05T12:44:10.224Z,18.20
2022-10-05T12:45:09.668Z,18.15
2022-10-05T12:46:09.008Z,18.04
2022-10-05T12:47:10.204Z,18.18
2022-10-05T12:48:10.409Z,18.25
2022-10-05T12:49:10.771Z,18.19
2022-10-05T12:50:12.558Z,18.07
2022-10-05T12:51:11.150Z,18.03
2022-10-05T12:52:11.557Z,18.03
2022-10-05T12:53:11.949Z,17.90
2022-10-05T12:54:12.135Z,18.01
2022-10-05T12:55:14.910Z,18.03
2022-10-05T12:56:12.063Z,17.98